Time;durP1;ratioP1;P1;durP2;ratioP2;P2;SDS_P1;SDS_P2;PMS_P1;PMS_P2;Temp;Humidity;BMP_temperature;BMP_pressure;BME280_temperature;BME280_humidity;BME280_pressure;Samples;Min_cycle;Max_cycle;Signal;HPM_P1;HPM_P2
2022/02/14 00:01:37;;;;;;;5.07;2.58;;;2.00;99.90;;;;;;5091652;28;20406;-72
2022/02/14 00:04:08;;;;;;;3.77;2.53;;;2.00;99.90;;;;;;5072803;28;20054;-72
2022/02/14 00:06:42;;;;;;;4.10;2.00;;;2.00;99.90;;;;;;5073465;28;20776;-72
2022/02/14 00:09:08;;;;;;;2.88;2.20;;;2.00;99.90;;;;;;5073330;28;20064;-72
2022/02/14 00:11:41;;;;;;;7.63;2.53;;;2.00;99.90;;;;;;5073336;28;20047;-72
2022/02/14 00:14:07;;;;;;;4.93;2.05;;;2.00;99.90;;;;;;5106576;28;20126;-71
2022/02/14 00:16:39;;;;;;;3.70;2.35;;;2.10;99.90;;;;;;5091575;28;20122;-72
2022/02/14 00:19:16;;;;;;;4.43;2.70;;;2.10;99.90;;;;;;5090203;28;20040;-72
2022/02/14 00:21:43;;;;;;;5.28;2.13;;;2.10;99.90;;;;;;5090211;28;20044;-72
2022/02/14 00:24:18;;;;;;;3.55;2.30;;;2.10;99.90;;;;;;5089984;28;20109;-72
2022/02/14 00:26:47;;;;;;;4.88;2.42;;;2.10;99.90;;;;;;5090018;28;20075;-72
2022/02/14 00:29:21;;;;;;;4.32;1.73;;;2.10;99.90;;;;;;5089275;28;20504;-71
2022/02/14 00:31:54;;;;;;;4.38;2.00;;;2.10;99.90;;;;;;5090327;28;20072;-72
2022/02/14 00:34:26;;;;;;;6.95;3.03;;;2.10;99.90;;;;;;5090718;28;20044;-72
2022/02/14 00:36:58;;;;;;;4.70;2.17;;;2.20;99.90;;;;;;5089950;28;20494;-72
2022/02/14 00:39:32;;;;;;;2.50;1.65;;;2.10;99.90;;;;;;5090871;28;20067;-72
2022/02/14 00:42:07;;;;;;;2.40;1.70;;;2.20;99.90;;;;;;5091125;28;20058;-72
2022/02/14 00:44:34;;;;;;;7.50;2.80;;;2.20;99.90;;;;;;5072382;28;20143;-71
2022/02/14 00:47:06;;;;;;;3.30;1.88;;;2.20;99.90;;;;;;5073004;28;20142;-72
2022/02/14 00:49:38;;;;;;;4.35;2.13;;;2.20;99.90;;;;;;5091155;28;20036;-71
2022/02/14 00:52:10;;;;;;;3.20;1.90;;;2.20;99.90;;;;;;5091087;28;20044;-72
2022/02/14 00:54:43;;;;;;;3.10;1.55;;;2.20;99.90;;;;;;5088342;28;20048;-72
2022/02/14 00:57:15;;;;;;;2.83;1.60;;;2.10;99.90;;;;;;5074050;28;20040;-72
2022/02/14 00:59:47;;;;;;;4.07;2.15;;;2.10;99.90;;;;;;5090904;28;20469;-72
2022/02/14 01:02:15;;;;;;;2.60;1.80;;;2.10;99.90;;;;;;5072460;28;20040;-72
2022/02/14 01:04:41;;;;;;;3.60;1.80;;;2.10;99.90;;;;;;5089411;28;20135;-72
2022/02/14 01:07:15;;;;;;;2.78;1.50;;;2.10;99.90;;;;;;5073033;28;20525;-72
2022/02/14 01:09:47;;;;;;;2.92;1.80;;;2.10;99.90;;;;;;5073678;28;20042;-72
2022/02/14 01:12:20;;;;;;;3.40;1.80;;;2.00;99.90;;;;;;5073507;28;20044;-72
2022/02/14 01:14:52;;;;;;;3.85;2.17;;;2.00;99.90;;;;;;5073636;28;20044;-72
2022/02/14 01:17:27;;;;;;;4.35;2.33;;;2.00;99.90;;;;;;5074091;28;20489;-72
2022/02/14 01:20:00;;;;;;;3.60;1.40;;;2.00;99.90;;;;;;5093505;28;20399;-71
2022/02/14 01:22:33;;;;;;;3.88;1.73;;;2.00;99.90;;;;;;5059806;28;20536;-72
2022/02/14 01:25:01;;;;;;;2.47;1.55;;;2.00;99.90;;;;;;5076428;28;20071;-72
2022/02/14 01:27:35;;;;;;;2.13;1.50;;;2.00;99.90;;;;;;5094198;28;20059;-72
2022/02/14 01:30:12;;;;;;;3.00;1.38;;;2.10;99.90;;;;;;5076206;28;20059;-72
2022/02/14 01:32:46;;;;;;;3.30;1.77;;;2.10;99.90;;;;;;5092476;28;20083;-72
2022/02/14 01:35:19;;;;;;;3.25;1.75;;;2.20;99.90;;;;;;5060577;28;20040;-72
2022/02/14 01:37:50;;;;;;;2.75;1.85;;;2.20;99.90;;;;;;5059872;28;20056;-72
2022/02/14 01:40:22;;;;;;;2.58;1.45;;;2.20;99.90;;;;;;5093914;28;20127;-72
2022/02/14 01:42:49;;;;;;;2.63;1.48;;;2.20;99.90;;;;;;5093730;28;20072;-72
2022/02/14 01:45:22;;;;;;;1.88;1.50;;;2.20;99.90;;;;;;5093333;28;20475;-70
2022/02/14 01:47:49;;;;;;;4.55;2.15;;;2.20;99.90;;;;;;5093955;28;20040;-72
2022/02/14 01:50:21;;;;;;;2.50;1.40;;;2.20;99.90;;;;;;5093870;28;20047;-71
2022/02/14 01:52:54;;;;;;;6.45;1.80;;;2.20;99.90;;;;;;5059308;28;20411;-72
2022/02/14 01:55:26;;;;;;;2.65;1.52;;;2.20;99.90;;;;;;5075373;28;20066;-72
2022/02/14 01:58:04;;;;;;;3.85;1.45;;;2.10;99.90;;;;;;5093895;28;20126;-72
2022/02/14 02:00:37;;;;;;;2.00;1.23;;;2.10;99.90;;;;;;5093183;28;20063;-70
2022/02/14 02:03:04;;;;;;;4.25;1.38;;;2.10;99.90;;;;;;5074498;28;20597;-70
2022/02/14 02:05:38;;;;;;;2.70;1.45;;;2.10;99.90;;;;;;5059122;28;20059;-72
2022/02/14 02:08:10;;;;;;;3.92;1.38;;;2.00;99.90;;;;;;5074876;28;20044;-71
2022/02/14 02:10:37;;;;;;;1.63;1.15;;;2.00;99.90;;;;;;5074877;28;20078;-72
2022/02/14 02:13:10;;;;;;;;;;;2.00;99.90;;;;;;5074681;28;20044;-72
2022/02/14 02:15:42;;;;;;;3.47;1.27;;;2.00;99.90;;;;;;5093075;28;19927;-71
2022/02/14 02:18:14;;;;;;;3.90;1.73;;;2.00;99.90;;;;;;5075660;28;20050;-72
2022/02/14 02:20:46;;;;;;;3.10;1.70;;;2.00;99.90;;;;;;5075452;28;20036;-71
2022/02/14 02:23:13;;;;;;;3.83;2.00;;;1.90;99.90;;;;;;5074054;28;20146;-72
2022/02/14 02:25:48;;;;;;;3.55;2.13;;;1.80;99.90;;;;;;5092404;28;20066;-72
2022/02/14 02:28:15;;;;;;;2.63;1.60;;;1.70;99.90;;;;;;5092367;28;20050;-72
2022/02/14 02:30:46;;;;;;;3.45;1.52;;;1.60;99.90;;;;;;5092663;28;20121;-72
2022/02/14 02:33:13;;;;;;;2.63;1.38;;;1.50;99.90;;;;;;5092025;28;20131;-72
2022/02/14 02:35:40;;;;;;;3.15;1.80;;;1.50;99.90;;;;;;5092481;28;20064;-70
2022/02/14 02:38:12;;;;;;;3.15;2.10;;;1.50;99.90;;;;;;5092445;28;20040;-72
2022/02/14 02:40:39;;;;;;;3.90;1.90;;;1.40;99.90;;;;;;5092311;28;20032;-72
2022/02/14 02:43:11;;;;;;;3.03;1.55;;;1.40;99.90;;;;;;5091731;28;20040;-72
2022/02/14 02:45:45;;;;;;;2.85;1.42;;;1.40;99.90;;;;;;5092316;28;20582;-72
2022/02/14 02:48:12;;;;;;;4.63;1.75;;;1.30;99.90;;;;;;5092407;28;20123;-72
2022/02/14 02:51:02;;;;;;;4.10;2.20;;;1.30;99.90;;;;;;5073987;28;20451;-72
2022/02/14 02:53:34;;;;;;;1.48;1.02;;;1.30;99.90;;;;;;5073614;28;20524;-71
2022/02/14 02:56:04;;;;;;;3.05;1.30;;;1.30;99.90;;;;;;5074093;28;20082;-72
2022/02/14 02:58:30;;;;;;;3.38;1.30;;;1.30;99.90;;;;;;5073895;28;20506;-72
2022/02/14 03:01:04;;;;;;;3.03;1.27;;;1.20;99.90;;;;;;5091916;28;20043;-72
2022/02/14 03:03:31;;;;;;;2.13;1.50;;;1.20;99.90;;;;;;5091570;28;20043;-72
2022/02/14 03:06:03;;;;;;;2.55;1.27;;;1.30;99.90;;;;;;5091880;28;20050;-72
2022/02/14 03:08:35;;;;;;;4.03;1.58;;;1.20;99.90;;;;;;5073705;28;20131;-71
2022/02/14 03:11:07;;;;;;;2.83;1.40;;;1.20;99.90;;;;;;5074609;28;20044;-72
2022/02/14 03:13:39;;;;;;;2.28;1.15;;;1.20;99.90;;;;;;5091304;28;20040;-71
2022/02/14 03:16:05;;;;;;;2.92;1.40;;;1.20;99.90;;;;;;5091843;28;20090;-72
2022/02/14 03:18:32;;;;;;;3.10;1.40;;;1.20;99.90;;;;;;5073701;28;20039;-72
2022/02/14 03:21:05;;;;;;;4.00;1.40;;;1.20;99.90;;;;;;5091615;28;20469;-72
2022/02/14 03:23:32;;;;;;;3.25;1.65;;;1.30;99.90;;;;;;5091041;28;20050;-71
2022/02/14 03:25:59;;;;;;;3.85;1.20;;;1.30;99.90;;;;;;5091687;28;20050;-72
2022/02/14 03:28:27;;;;;;;1.65;1.25;;;1.30;99.90;;;;;;5090095;28;20593;-72
2022/02/14 03:31:01;;;;;;;3.63;1.55;;;1.30;99.90;;;;;;5090516;28;20127;-72
2022/02/14 03:33:33;;;;;;;2.60;1.58;;;1.30;99.90;;;;;;5072896;28;20044;-72
2022/02/14 03:36:00;;;;;;;2.30;1.40;;;1.40;99.90;;;;;;5073267;28;20573;-72
2022/02/14 03:38:34;;;;;;;2.47;1.35;;;1.40;99.90;;;;;;5090858;28;20502;-72
2022/02/14 03:41:07;;;;;;;4.85;1.65;;;1.30;99.90;;;;;;5072582;28;20040;-71
2022/02/14 03:43:39;;;;;;;2.25;1.20;;;1.30;99.90;;;;;;5072933;28;20040;-71
2022/02/14 03:46:11;;;;;;;1.80;1.35;;;1.30;99.90;;;;;;5091135;28;20106;-72
2022/02/14 03:48:46;;;;;;;2.75;1.83;;;1.20;99.90;;;;;;5091205;28;20541;-71
2022/02/14 03:51:18;;;;;;;3.60;1.67;;;1.20;99.90;;;;;;5089010;28;20139;-71
2022/02/14 03:53:46;;;;;;;2.55;1.58;;;1.20;99.90;;;;;;5072510;28;20133;-72
2022/02/14 03:56:27;;;;;;;2.92;1.58;;;1.10;99.90;;;;;;5091148;28;20040;-72
2022/02/14 03:58:54;;;;;;;3.15;1.92;;;1.10;99.90;;;;;;5091125;28;20135;-72
2022/02/14 04:01:27;;;;;;;2.35;1.67;;;1.00;99.90;;;;;;5056749;28;20039;-71
2022/02/14 04:03:59;;;;;;;2.58;1.15;;;1.10;99.90;;;;;;5090386;28;20036;-72
2022/02/14 04:06:31;;;;;;;4.90;2.08;;;1.10;99.90;;;;;;5091043;28;20123;-72
2022/02/14 04:09:03;;;;;;;2.58;1.58;;;1.00;99.90;;;;;;5073687;28;20040;-71
2022/02/14 04:11:32;;;;;;;5.40;2.20;;;1.10;99.90;;;;;;5072663;28;20048;-72
2022/02/14 04:14:03;;;;;;;6.65;2.35;;;1.10;99.90;;;;;;5072145;28;20126;-72
2022/02/14 04:16:35;;;;;;;6.05;2.50;;;1.10;99.90;;;;;;5089432;28;20514;-71
2022/02/14 04:19:07;;;;;;;6.70;3.13;;;1.00;99.90;;;;;;5073200;28;20044;-72
2022/02/14 04:21:34;;;;;;;4.78;2.67;;;1.00;99.90;;;;;;5091237;28;20058;-71
2022/02/14 04:24:06;;;;;;;8.65;3.25;;;1.00;99.90;;;;;;5072678;28;20128;-72
2022/02/14 04:26:39;;;;;;;6.72;3.03;;;1.00;99.90;;;;;;5073054;28;20127;-72
2022/02/14 04:29:06;;;;;;;6.40;2.85;;;0.90;99.90;;;;;;5073038;28;20143;-72
2022/02/14 04:31:35;;;;;;;4.28;3.08;;;0.90;99.90;;;;;;5091158;28;20390;-72
2022/02/14 04:34:07;;;;;;;8.75;4.35;;;0.90;99.90;;;;;;5073492;28;20064;-72
2022/02/14 04:36:42;;;;;;;9.48;5.18;;;0.90;99.90;;;;;;5091132;28;20046;-72
2022/02/14 04:39:15;;;;;;;10.05;4.32;;;0.90;99.90;;;;;;5090930;28;20040;-72
2022/02/14 04:41:47;;;;;;;13.50;4.45;;;0.90;99.90;;;;;;5089811;28;20040;-71
2022/02/14 04:44:19;;;;;;;9.15;4.03;;;0.90;99.90;;;;;;5072487;28;20046;-72
2022/02/14 04:46:52;;;;;;;5.47;2.55;;;0.90;99.90;;;;;;5056696;28;20070;-72
2022/02/14 04:49:24;;;;;;;4.65;3.03;;;0.80;99.90;;;;;;5072741;28;20132;-71
2022/02/14 04:51:58;;;;;;;6.38;3.05;;;0.80;99.90;;;;;;5092280;28;20101;-71
2022/02/14 04:54:30;;;;;;;4.93;2.67;;;0.70;99.90;;;;;;5094078;28;20044;-72
2022/02/14 04:57:02;;;;;;;8.52;5.85;;;0.70;99.90;;;;;;5076484;28;20079;-72
2022/02/14 04:59:30;;;;;;;19.80;11.02;;;0.70;99.90;;;;;;5076740;28;20044;-72
2022/02/14 05:02:01;;;;;;;15.70;10.50;;;0.60;99.90;;;;;;5092905;28;20409;-72
2022/02/14 05:04:33;;;;;;;9.45;5.47;;;0.60;99.90;;;;;;5075897;28;20054;-73
2022/02/14 05:07:05;;;;;;;6.15;4.30;;;0.60;99.90;;;;;;5053165;28;20041;-71
2022/02/14 05:09:38;;;;;;;7.13;4.32;;;0.60;99.90;;;;;;5077878;28;20036;-71
2022/02/14 05:12:11;;;;;;;7.25;4.03;;;0.70;99.90;;;;;;5075571;28;20409;-74
2022/02/14 05:14:38;;;;;;;5.97;3.97;;;0.70;99.90;;;;;;5091977;28;20147;-77
2022/02/14 05:17:06;;;;;;;14.02;6.63;;;0.70;99.90;;;;;;5069346;28;20051;-72
2022/02/14 05:19:37;;;;;;;13.07;6.87;;;0.80;99.90;;;;;;5093506;28;20058;-75
2022/02/14 05:22:10;;;;;;;10.65;5.95;;;0.80;99.90;;;;;;5093556;28;20312;-72
2022/02/14 05:24:44;;;;;;;12.50;7.03;;;0.80;99.90;;;;;;5093525;28;20039;-72
2022/02/14 05:27:18;;;;;;;10.77;7.30;;;0.80;99.90;;;;;;5079194;28;20036;-72
2022/02/14 05:29:51;;;;;;;8.75;5.25;;;0.90;99.90;;;;;;5093572;28;20123;-72
2022/02/14 05:32:17;;;;;;;7.18;4.20;;;0.90;99.90;;;;;;5092179;28;20510;-72
2022/02/14 05:34:50;;;;;;;5.72;2.40;;;0.90;99.90;;;;;;5092962;28;20058;-72
2022/02/14 05:37:23;;;;;;;4.90;2.70;;;0.80;99.90;;;;;;5060256;28;20062;-72
2022/02/14 05:39:55;;;;;;;6.00;3.42;;;0.80;99.90;;;;;;5093433;28;20506;-73
2022/02/14 05:42:28;;;;;;;5.77;2.50;;;0.80;99.90;;;;;;5093192;28;20036;-71
2022/02/14 05:44:59;;;;;;;4.93;2.58;;;0.80;99.90;;;;;;5073583;28;20134;-71
2022/02/14 05:47:33;;;;;;;;;;;0.70;99.90;;;;;;5076925;28;20491;-72
2022/02/14 05:50:00;;;;;;;4.40;2.17;;;0.80;99.90;;;;;;5079071;28;19934;-72
2022/02/14 05:52:27;;;;;;;3.28;2.00;;;0.80;99.90;;;;;;5080275;28;20555;-72
2022/02/14 05:55:01;;;;;;;4.78;1.65;;;0.80;99.90;;;;;;5081907;28;20051;-72
2022/02/14 05:57:34;;;;;;;4.93;1.58;;;0.90;99.90;;;;;;5089731;28;20044;-72
2022/02/14 06:00:08;;;;;;;5.65;1.67;;;0.90;99.90;;;;;;5077122;28;20036;-72
2022/02/14 06:02:35;;;;;;;5.63;2.50;;;0.80;99.90;;;;;;5073532;28;20117;-72
2022/02/14 06:05:07;;;;;;;5.28;3.22;;;0.80;99.90;;;;;;5075539;28;20470;-72
2022/02/14 06:07:38;;;;;;;6.38;4.00;;;0.90;99.90;;;;;;5075848;28;20036;-72
2022/02/14 06:10:12;;;;;;;11.20;6.40;;;0.80;99.90;;;;;;5075592;28;20409;-73
2022/02/14 06:12:40;;;;;;;9.10;5.28;;;0.80;99.90;;;;;;5074720;28;20574;-72
2022/02/14 06:15:07;;;;;;;7.72;4.13;;;0.80;99.90;;;;;;5074444;28;20032;-72
2022/02/14 06:17:39;;;;;;;8.52;4.55;;;0.80;99.90;;;;;;5086766;28;20120;-72
2022/02/14 06:20:11;;;;;;;4.75;1.95;;;0.80;99.90;;;;;;5075467;28;20062;-72
2022/02/14 06:22:38;;;;;;;2.95;1.70;;;0.80;99.90;;;;;;5078998;28;20519;-71
2022/02/14 06:25:06;;;;;;;2.30;1.40;;;0.70;99.90;;;;;;5074384;28;20546;-73
2022/02/14 06:27:33;;;;;;;4.07;2.00;;;0.70;99.90;;;;;;5074807;28;20444;-71
2022/02/14 06:29:59;;;;;;;5.70;2.30;;;0.80;99.90;;;;;;5073767;28;20473;-72
2022/02/14 06:32:26;;;;;;;3.53;1.67;;;0.80;99.90;;;;;;5087504;28;20131;-72
2022/02/14 06:34:53;;;;;;;10.25;1.95;;;0.90;99.90;;;;;;5071560;28;20102;-71
2022/02/14 06:37:20;;;;;;;5.00;2.35;;;0.90;99.90;;;;;;5074187;28;20048;-72
2022/02/14 06:39:52;;;;;;;5.45;2.45;;;0.90;99.90;;;;;;5075274;28;20503;-72
2022/02/14 06:42:24;;;;;;;2.92;2.10;;;0.90;99.90;;;;;;5078051;28;20398;-71
2022/02/14 06:44:50;;;;;;;3.67;2.28;;;0.90;99.90;;;;;;5081870;28;20111;-72
2022/02/14 06:47:17;;;;;;;5.20;1.92;;;0.90;99.90;;;;;;5073632;28;20143;-73
2022/02/14 06:49:50;;;;;;;3.33;1.80;;;0.80;99.90;;;;;;5072140;28;20047;-71
2022/02/14 06:52:22;;;;;;;2.88;1.70;;;0.80;99.90;;;;;;5073082;28;20062;-72
2022/02/14 06:54:58;;;;;;;11.07;2.60;;;0.80;99.90;;;;;;5076647;28;20111;-72
2022/02/14 06:57:31;;;;;;;4.80;1.70;;;0.80;99.90;;;;;;5074306;28;20048;-73
2022/02/14 07:00:26;;;;;;;3.75;1.65;;;0.80;99.90;;;;;;5090623;28;20151;-72
2022/02/14 07:02:53;;;;;;;5.90;1.65;;;0.80;99.90;;;;;;5072291;28;20042;-71
2022/02/14 07:05:22;;;;;;;3.10;1.67;;;0.80;99.90;;;;;;5076981;28;20117;-72
2022/02/14 07:07:53;;;;;;;;;;;0.80;99.90;;;;;;5058035;28;20079;-72
2022/02/14 07:10:21;;;;;;;3.00;1.23;;;0.80;99.90;;;;;;5071278;28;19928;-73
2022/02/14 07:12:49;;;;;;;3.85;1.33;;;0.80;99.90;;;;;;5089546;28;20115;-72
2022/02/14 07:15:21;;;;;;;6.05;2.30;;;0.80;99.90;;;;;;5085069;28;20052;-72
2022/02/14 07:17:54;;;;;;;21.63;8.25;;;0.90;99.90;;;;;;5063803;28;20097;-72
2022/02/14 07:20:27;;;;;;;16.75;7.82;;;0.80;99.90;;;;;;5086264;28;20056;-72
2022/02/14 07:23:00;;;;;;;16.42;6.43;;;0.80;99.90;;;;;;5067232;28;20051;-73
2022/02/14 07:25:29;;;;;;;14.55;6.75;;;0.80;99.90;;;;;;5067196;28;20491;-72
2022/02/14 07:28:03;;;;;;;17.33;7.22;;;0.90;99.90;;;;;;5091570;28;20119;-72
2022/02/14 07:30:35;;;;;;;;;;;0.90;99.90;;;;;;5092124;28;20119;-71
2022/02/14 07:33:01;;;;;;;17.80;7.22;;;0.90;99.90;;;;;;5072597;28;19999;-71
2022/02/14 07:35:34;;;;;;;11.23;5.50;;;0.90;99.90;;;;;;5092059;28;20043;-71
2022/02/14 07:38:06;;;;;;;13.82;5.57;;;0.90;99.90;;;;;;5092064;28;20044;-71
2022/02/14 07:40:33;;;;;;;13.85;6.57;;;0.90;99.90;;;;;;5091725;28;20050;-72
2022/02/14 07:43:00;;;;;;;16.30;6.78;;;0.90;99.90;;;;;;5089794;28;20499;-70
2022/02/14 07:45:32;;;;;;;13.18;7.35;;;0.90;99.90;;;;;;5068414;28;20078;-75
2022/02/14 07:47:59;;;;;;;60.53;35.30;;;0.90;99.90;;;;;;5068471;28;20681;-72
2022/02/14 07:50:26;;;;;;;22.92;14.20;;;1.00;99.90;;;;;;5070101;28;20051;-73
2022/02/14 07:52:53;;;;;;;18.88;15.60;;;1.00;99.90;;;;;;5047361;28;20135;-72
2022/02/14 07:55:26;;;;;;;17.02;14.85;;;1.00;99.90;;;;;;5061438;28;20490;-73
2022/02/14 07:58:01;;;;;;;11.65;8.63;;;1.00;99.90;;;;;;5067379;28;20491;-72
2022/02/14 08:00:36;;;;;;;138.13;60.10;;;1.10;99.90;;;;;;5069302;28;20036;-72
2022/02/14 08:03:08;;;;;;;64.30;31.42;;;1.10;99.90;;;;;;5089385;28;20040;-72
2022/02/14 08:05:40;;;;;;;31.02;14.30;;;1.10;99.90;;;;;;5071303;28;20041;-72
2022/02/14 08:08:06;;;;;;;21.58;11.65;;;1.20;99.90;;;;;;5059511;28;20154;-73
2022/02/14 08:10:38;;;;;;;9.45;5.78;;;1.30;99.90;;;;;;5069353;28;20044;-73
2022/02/14 08:13:05;;;;;;;8.07;4.72;;;1.40;99.90;;;;;;5088476;28;20628;-72
2022/02/14 08:15:32;;;;;;;8.10;4.50;;;1.50;99.90;;;;;;5088704;28;20508;-72
2022/02/14 08:18:04;;;;;;;15.00;7.55;;;1.50;99.90;;;;;;5084305;28;20437;-73
2022/02/14 08:20:37;;;;;;;34.78;15.48;;;1.60;99.90;;;;;;5071630;28;20035;-73
2022/02/14 08:23:09;;;;;;;19.15;8.35;;;1.70;99.90;;;;;;5082231;28;20119;-72
2022/02/14 08:25:36;;;;;;;20.77;9.85;;;1.80;99.90;;;;;;5070609;28;20111;-73
2022/02/14 08:28:08;;;;;;;22.90;6.35;;;1.90;99.90;;;;;;5071855;28;20044;-72
2022/02/14 08:30:40;;;;;;;14.48;6.38;;;2.00;99.90;;;;;;5067951;28;20111;-72
2022/02/14 08:33:12;;;;;;;12.95;7.18;;;2.00;99.90;;;;;;5089173;28;20044;-73
2022/02/14 08:35:52;;;;;;;44.05;25.08;;;2.00;99.90;;;;;;5053080;28;20048;-73
2022/02/14 08:38:26;;;;;;;30.27;18.08;;;2.10;99.90;;;;;;5072359;28;20206;-72
2022/02/14 08:40:52;;;;;;;26.02;14.30;;;2.20;99.90;;;;;;5072523;28;20048;-73
2022/02/14 08:43:24;;;;;;;17.00;9.35;;;2.30;99.90;;;;;;5059271;28;20050;-72
2022/02/14 08:45:52;;;;;;;13.60;7.82;;;2.40;99.90;;;;;;5072283;28;20253;-73
2022/02/14 08:48:24;;;;;;;17.75;9.20;;;2.50;99.90;;;;;;5073509;28;20048;-73
2022/02/14 08:50:56;;;;;;;16.10;9.23;;;2.60;99.90;;;;;;5072930;28;20047;-73
2022/02/14 08:53:25;;;;;;;16.48;10.23;;;2.70;99.90;;;;;;5090135;28;20117;-73
2022/02/14 08:55:57;;;;;;;14.60;8.60;;;2.80;99.90;;;;;;5072896;28;20406;-73
2022/02/14 08:58:29;;;;;;;19.70;10.75;;;2.80;99.90;;;;;;5089934;28;20142;-73
2022/02/14 09:01:02;;;;;;;14.40;7.53;;;2.80;99.90;;;;;;5090756;28;20515;-73
2022/02/14 09:03:34;;;;;;;21.02;9.73;;;2.90;99.90;;;;;;5090310;28;20456;-73
2022/02/14 09:06:08;;;;;;;23.92;10.90;;;3.00;99.90;;;;;;5056480;28;20036;-73
2022/02/14 09:08:43;;;;;;;17.08;8.40;;;3.00;99.90;;;;;;5090777;28;20044;-73
2022/02/14 09:11:15;;;;;;;20.15;10.65;;;3.10;99.90;;;;;;5087782;28;20071;-73
2022/02/14 09:13:42;;;;;;;24.48;13.63;;;3.20;99.90;;;;;;5087867;28;20554;-73
2022/02/14 09:16:14;;;;;;;12.77;7.20;;;3.20;99.90;;;;;;5080413;28;20047;-73
2022/02/14 09:18:41;;;;;;;21.30;9.77;;;3.20;99.90;;;;;;5089371;28;20072;-73
2022/02/14 09:21:15;;;;;;;19.88;10.35;;;3.30;99.90;;;;;;5073031;28;20101;-72
2022/02/14 09:23:47;;;;;;;18.77;7.80;;;3.40;99.90;;;;;;5083027;28;20041;-73
2022/02/14 09:26:21;;;;;;;8.52;6.32;;;3.40;99.90;;;;;;5056900;28;20514;-72
2022/02/14 09:28:53;;;;;;;10.10;6.28;;;3.50;99.90;;;;;;5072268;28;20054;-72
2022/02/14 09:31:25;;;;;;;12.30;9.30;;;3.50;99.90;;;;;;5071943;28;20047;-73
2022/02/14 09:33:56;;;;;;;20.65;8.85;;;3.50;99.90;;;;;;5089762;28;20081;-73
2022/02/14 09:36:28;;;;;;;15.32;7.88;;;3.60;99.90;;;;;;5090499;28;20054;-73
2022/02/14 09:39:01;;;;;;;12.10;7.65;;;3.70;99.90;;;;;;5093178;28;20122;-72
2022/02/14 09:41:36;;;;;;;18.65;11.32;;;3.80;99.90;;;;;;5059571;28;20043;-73
2022/02/14 09:44:08;;;;;;;14.73;7.78;;;3.90;99.90;;;;;;5075928;28;20040;-73
2022/02/14 09:46:42;;;;;;;23.23;7.97;;;4.00;99.90;;;;;;5094582;28;20046;-73
2022/02/14 09:49:14;;;;;;;6.40;4.15;;;4.00;99.90;;;;;;5075545;28;20128;-73
2022/02/14 09:51:41;;;;;;;5.40;3.65;;;4.10;99.90;;;;;;5089219;28;20503;-73
2022/02/14 09:54:07;;;;;;;5.13;3.58;;;4.20;99.90;;;;;;5075100;28;20481;-73
2022/02/14 09:56:41;;;;;;;6.88;3.13;;;4.20;99.90;;;;;;5091161;28;20046;-72
2022/02/14 09:59:14;;;;;;;8.00;2.97;;;4.30;99.90;;;;;;5093797;28;20040;-73
2022/02/14 10:01:47;;;;;;;7.63;3.28;;;4.40;99.90;;;;;;5092093;28;20051;-73
2022/02/14 10:04:14;;;;;;;13.07;3.38;;;4.40;99.90;;;;;;5093074;28;20487;-71
2022/02/14 10:06:46;;;;;;;10.00;3.45;;;4.40;99.90;;;;;;5092944;28;20040;-73
2022/02/14 10:09:20;;;;;;;8.55;3.03;;;4.50;99.90;;;;;;5093582;28;20513;-72
2022/02/14 10:12:10;;;;;;;5.80;3.08;;;4.60;99.90;;;;;;5093446;28;20044;-73
2022/02/14 10:14:42;;;;;;;;;;;4.80;99.90;;;;;;5076122;28;20036;-73
2022/02/14 10:17:22;;;;;;;8.60;3.78;;;5.00;99.90;;;;;;5092287;28;20010;-73
2022/02/14 10:19:56;;;;;;;8.98;3.63;;;5.10;99.90;;;;;;5095483;28;20046;-73
2022/02/14 10:22:23;;;;;;;11.18;4.97;;;5.40;99.90;;;;;;5074673;28;20043;-73
2022/02/14 10:24:55;;;;;;;8.23;4.43;;;5.60;99.90;;;;;;5074684;28;20135;-73
2022/02/14 10:27:34;;;;;;;8.25;4.72;;;5.80;99.90;;;;;;5093066;28;20036;-73
2022/02/14 10:30:11;;;;;;;9.18;4.07;;;5.90;99.90;;;;;;5073864;28;20032;-73
2022/02/14 10:32:50;;;;;;;7.25;4.13;;;6.10;99.90;;;;;;5084546;28;20524;-73
2022/02/14 10:35:20;;;;;;;4.72;3.30;;;6.20;99.90;;;;;;5075350;28;20048;-74
2022/02/14 10:37:47;;;;;;;5.22;3.05;;;6.40;99.90;;;;;;5092686;28;20114;-73
2022/02/14 10:40:30;;;;;;;5.30;2.97;;;6.40;99.90;;;;;;5074055;28;20054;-73
2022/02/14 10:43:03;;;;;;;4.93;2.70;;;6.50;99.90;;;;;;5092682;28;20040;-73
2022/02/14 10:45:51;;;;;;;4.65;2.60;;;6.60;99.90;;;;;;5085386;28;20044;-73
2022/02/14 10:48:40;;;;;;;4.65;2.40;;;6.70;99.90;;;;;;5081894;28;20111;-73
2022/02/14 10:51:19;;;;;;;15.38;3.55;;;6.80;99.90;;;;;;5047174;28;20117;-73
2022/02/14 10:53:55;;;;;;;7.65;2.42;;;6.90;99.90;;;;;;5072775;28;20054;-73
2022/02/14 10:56:27;;;;;;;6.43;2.90;;;7.00;99.90;;;;;;5087690;28;20493;-73
2022/02/14 10:59:17;;;;;;;4.50;3.17;;;7.00;99.90;;;;;;5072534;28;20037;-73
2022/02/14 11:01:50;;;;;;;8.48;3.85;;;7.10;99.90;;;;;;5074015;28;20044;-71
2022/02/14 11:04:17;;;;;;;25.02;13.00;;;7.10;99.90;;;;;;5074429;28;20050;-73
2022/02/14 11:06:49;;;;;;;9.35;4.47;;;7.10;99.90;;;;;;5090400;28;20037;-72
2022/02/14 11:09:23;;;;;;;4.05;2.15;;;7.20;99.90;;;;;;5075126;28;20036;-73
2022/02/14 11:11:56;;;;;;;5.78;2.88;;;7.20;99.90;;;;;;5074152;28;20040;-73
2022/02/14 11:14:26;;;;;;;6.78;3.03;;;7.30;99.90;;;;;;5090158;28;20044;-73
2022/02/14 11:17:00;;;;;;;8.82;2.95;;;7.20;99.90;;;;;;5074812;28;20082;-73
2022/02/14 11:19:28;;;;;;;5.55;3.00;;;7.30;99.90;;;;;;5092167;28;20036;-73
2022/02/14 11:22:03;;;;;;;4.82;3.05;;;7.20;99.90;;;;;;5090930;28;20054;-73
2022/02/14 11:24:34;;;;;;;4.18;2.53;;;7.30;99.90;;;;;;5070217;28;20184;-72
2022/02/14 11:27:06;;;;;;;5.43;2.65;;;7.30;99.90;;;;;;5091075;28;20044;-73
2022/02/14 11:29:55;;;;;;;3.97;2.78;;;7.30;99.90;;;;;;5086391;28;20043;-73
2022/02/14 11:32:28;;;;;;;6.70;2.95;;;7.40;99.90;;;;;;5070129;28;20411;-72
2022/02/14 11:34:58;;;;;;;3.88;2.47;;;7.50;99.90;;;;;;5091308;28;20047;-73
2022/02/14 11:37:46;;;;;;;12.90;4.95;;;7.60;99.90;;;;;;5074182;28;20499;-73
2022/02/14 11:40:40;;;;;;;12.23;4.90;;;7.60;99.90;;;;;;5069865;28;20040;-73
2022/02/14 11:43:23;;;;;;;8.65;3.63;;;7.80;99.90;;;;;;5068758;28;20050;-73
2022/02/14 11:46:08;;;;;;;;;;;7.80;99.90;;;;;;5065476;28;20036;-73
2022/02/14 11:48:35;;;;;;;4.53;2.85;;;8.00;99.90;;;;;;5087350;28;19947;-73
2022/02/14 11:51:17;;;;;;;7.45;3.05;;;8.10;99.90;;;;;;5069808;28;20040;-73
2022/02/14 11:53:47;;;;;;;7.35;3.30;;;8.20;99.90;;;;;;5073025;28;20506;-72
2022/02/14 11:56:22;;;;;;;6.18;3.10;;;8.30;99.90;;;;;;5074580;28;20040;-73
2022/02/14 11:59:16;;;;;;;7.78;3.00;;;8.40;99.90;;;;;;5074102;28;20043;-73
2022/02/14 12:01:44;;;;;;;5.90;3.25;;;8.50;97.60;;;;;;5074970;28;20513;-73
2022/02/14 12:04:38;;;;;;;7.95;4.28;;;8.70;97.60;;;;;;5086495;28;20036;-74
2022/02/14 12:07:13;;;;;;;6.60;2.55;;;8.80;97.90;;;;;;5073327;28;20035;-73
2022/02/14 12:09:58;;;;;;;11.27;3.57;;;8.90;93.30;;;;;;5089946;28;20498;-73
2022/02/14 12:21:11;;;;;;;5.93;3.63;;;9.10;96.60;;;;;;5090812;28;20044;-73
2022/02/14 12:23:44;;;;;;;;;;;9.10;96.40;;;;;;5091357;28;20036;-74
2022/02/14 12:26:19;;;;;;;6.13;3.40;;;9.00;97.40;;;;;;5071514;28;20297;-73
2022/02/14 12:31:44;;;;;;;5.15;2.85;;;9.00;95.20;;;;;;5090694;28;20042;-73
2022/02/14 12:34:24;;;;;;;5.78;3.00;;;9.00;95.60;;;;;;5071400;28;20040;-73
2022/02/14 12:37:05;;;;;;;4.13;2.78;;;9.00;96.20;;;;;;5069952;28;20044;-72
2022/02/14 12:39:39;;;;;;;6.40;3.00;;;9.00;96.30;;;;;;5080869;28;20075;-73
2022/02/14 12:42:20;;;;;;;5.25;3.05;;;9.10;95.90;;;;;;5070422;28;20093;-72
2022/02/14 12:44:48;;;;;;;6.25;3.15;;;9.10;96.10;;;;;;5069915;28;20055;-72
2022/02/14 12:47:21;;;;;;;6.03;2.97;;;9.10;95.90;;;;;;5081347;28;20039;-73
2022/02/14 12:50:02;;;;;;;;;;;9.10;96.20;;;;;;5082747;28;20907;-73
2022/02/14 12:52:34;;;;;;;4.18;3.03;;;9.20;93.30;;;;;;5089380;28;19924;-73
2022/02/14 12:55:07;;;;;;;3.55;2.67;;;9.30;93.50;;;;;;5073415;28;20064;-73
2022/02/14 12:57:51;;;;;;;6.78;3.28;;;9.50;94.30;;;;;;5090329;28;20729;-72
2022/02/14 13:00:31;;;;;;;4.65;2.92;;;9.60;93.90;;;;;;5074218;28;20036;-73
2022/02/14 13:03:06;;;;;;;4.40;3.17;;;9.60;93.70;;;;;;5052750;28;20048;-73
2022/02/14 13:05:40;;;;;;;10.77;3.30;;;9.70;93.60;;;;;;5088132;28;20137;-72
2022/02/14 13:08:16;;;;;;;9.52;3.28;;;9.70;92.20;;;;;;5073754;28;20036;-73
2022/02/14 13:10:45;;;;;;;6.78;2.60;;;9.70;92.00;;;;;;5054904;28;20047;-73
2022/02/14 13:13:30;;;;;;;7.30;2.83;;;9.80;92.20;;;;;;5061925;28;20593;-73
2022/02/14 13:16:05;;;;;;;5.55;3.13;;;9.90;93.20;;;;;;5085281;28;20055;-73
2022/02/14 13:18:44;;;;;;;4.45;3.05;;;10.00;93.30;;;;;;5093987;28;20122;-73
2022/02/14 13:21:21;;;;;;;4.20;2.72;;;10.10;93.70;;;;;;5072564;28;20048;-72
2022/02/14 13:23:56;;;;;;;7.32;3.10;;;10.20;92.20;;;;;;5071165;28;20049;-73
2022/02/14 13:26:28;;;;;;;8.20;3.08;;;10.30;90.60;;;;;;5092237;28;20643;-73
2022/02/14 13:28:59;;;;;;;9.40;4.35;;;10.40;90.20;;;;;;5093996;28;20040;-73
2022/02/14 13:31:32;;;;;;;12.90;5.10;;;10.50;88.80;;;;;;5086275;28;20127;-73
2022/02/14 13:34:08;;;;;;;10.05;4.13;;;10.50;88.60;;;;;;5093390;28;20789;-73